sensor_id;sensor_type;location;lat;lon;timestamp;temperature;humidity
25949;DHT22;13961;51.178;4.448;2022-08-27T00:01:39;18.30;99.90
25949;DHT22;13961;51.178;4.448;2022-08-27T00:04:05;18.40;99.90
25949;DHT22;13961;51.178;4.448;2022-08-27T00:06:31;18.40;99.90
25949;DHT22;13961;51.178;4.448;2022-08-27T00:08:56;18.30;99.90
25949;DHT22;13961;51.178;4.448;2022-08-27T00:11:23;18.40;99.90
25949;DHT22;13961;51.178;4.448;2022-08-27T00:13:51;18.40;99.90
25949;DHT22;13961;51.178;4.448;2022-08-27T00:16:17;18.40;99.90
25949;DHT22;13961;51.178;4.448;2022-08-27T00:18:45;18.40;99.90
25949;DHT22;13961;51.178;4.448;2022-08-27T00:21:11;18.40;99.90
25949;DHT22;13961;51.178;4.448;2022-08-27T00:23:37;18.20;99.90
25949;DHT22;13961;51.178;4.448;2022-08-27T00:26:05;18.00;99.90
25949;DHT22;13961;51.178;4.448;2022-08-27T00:28:32;18.10;99.90
25949;DHT22;13961;51.178;4.448;2022-08-27T00:30:58;18.30;99.90
25949;DHT22;13961;51.178;4.448;2022-08-27T00:33:24;18.00;99.90
25949;DHT22;13961;51.178;4.448;2022-08-27T00:35:50;18.10;99.90
25949;DHT22;13961;51.178;4.448;2022-08-27T00:38:17;17.90;99.90
25949;DHT22;13961;51.178;4.448;2022-08-27T00:40:43;17.90;99.90
25949;DHT22;13961;51.178;4.448;2022-08-27T00:43:09;18.00;99.90
25949;DHT22;13961;51.178;4.448;2022-08-27T00:45:38;18.00;99.90
25949;DHT22;13961;51.178;4.448;2022-08-27T00:48:06;17.90;99.90
25949;DHT22;13961;51.178;4.448;2022-08-27T00:50:40;17.90;99.90
25949;DHT22;13961;51.178;4.448;2022-08-27T00:53:15;18.10;99.90
25949;DHT22;13961;51.178;4.448;2022-08-27T00:55:45;17.90;99.90
25949;DHT22;13961;51.178;4.448;2022-08-27T00:58:18;17.90;99.90
25949;DHT22;13961;51.178;4.448;2022-08-27T01:00:46;17.90;99.90
25949;DHT22;13961;51.178;4.448;2022-08-27T01:03:13;17.90;99.90
25949;DHT22;13961;51.178;4.448;2022-08-27T01:05:39;17.80;99.90
25949;DHT22;13961;51.178;4.448;2022-08-27T01:08:12;17.80;99.90
25949;DHT22;13961;51.178;4.448;2022-08-27T01:10:39;17.90;99.90
25949;DHT22;13961;51.178;4.448;2022-08-27T01:13:09;17.70;99.90
25949;DHT22;13961;51.178;4.448;2022-08-27T01:15:36;17.70;99.90
25949;DHT22;13961;51.178;4.448;2022-08-27T01:18:03;17.60;99.90
25949;DHT22;13961;51.178;4.448;2022-08-27T01:20:40;17.70;99.90
25949;DHT22;13961;51.178;4.448;2022-08-27T01:23:24;17.70;99.90
25949;DHT22;13961;51.178;4.448;2022-08-27T01:25:52;17.70;99.90
25949;DHT22;13961;51.178;4.448;2022-08-27T01:28:19;17.60;99.90
25949;DHT22;13961;51.178;4.448;2022-08-27T01:30:46;17.60;99.90
25949;DHT22;13961;51.178;4.448;2022-08-27T01:33:14;17.70;99.90
25949;DHT22;13961;51.178;4.448;2022-08-27T01:35:41;17.70;99.90
25949;DHT22;13961;51.178;4.448;2022-08-27T01:38:07;17.70;99.90
25949;DHT22;13961;51.178;4.448;2022-08-27T01:40:35;17.70;99.90
25949;DHT22;13961;51.178;4.448;2022-08-27T01:43:01;17.60;99.90
25949;DHT22;13961;51.178;4.448;2022-08-27T01:45:34;17.70;99.90
25949;DHT22;13961;51.178;4.448;2022-08-27T01:48:00;17.60;99.90
25949;DHT22;13961;51.178;4.448;2022-08-27T01:50:30;17.60;99.90
25949;DHT22;13961;51.178;4.448;2022-08-27T01:52:56;17.60;99.90
25949;DHT22;13961;51.178;4.448;2022-08-27T01:55:25;17.60;99.90
25949;DHT22;13961;51.178;4.448;2022-08-27T01:57:52;17.60;99.90
25949;DHT22;13961;51.178;4.448;2022-08-27T02:00:31;17.60;99.90
25949;DHT22;13961;51.178;4.448;2022-08-27T02:02:57;17.70;99.90
25949;DHT22;13961;51.178;4.448;2022-08-27T02:05:24;17.30;99.90
25949;DHT22;13961;51.178;4.448;2022-08-27T02:07:50;17.30;99.90
25949;DHT22;13961;51.178;4.448;2022-08-27T02:10:20;17.30;99.90
25949;DHT22;13961;51.178;4.448;2022-08-27T02:12:46;17.40;99.90
25949;DHT22;13961;51.178;4.448;2022-08-27T02:15:12;17.30;99.90
25949;DHT22;13961;51.178;4.448;2022-08-27T02:17:38;17.30;99.90
25949;DHT22;13961;51.178;4.448;2022-08-27T02:20:06;17.40;99.90
25949;DHT22;13961;51.178;4.448;2022-08-27T02:22:34;17.40;99.90
25949;DHT22;13961;51.178;4.448;2022-08-27T02:24:59;17.30;99.90
25949;DHT22;13961;51.178;4.448;2022-08-27T02:27:25;17.40;99.90
25949;DHT22;13961;51.178;4.448;2022-08-27T02:29:51;17.40;99.90
25949;DHT22;13961;51.178;4.448;2022-08-27T02:32:17;17.30;99.90
25949;DHT22;13961;51.178;4.448;2022-08-27T02:34:44;17.20;99.90
25949;DHT22;13961;51.178;4.448;2022-08-27T02:37:10;17.30;99.90
25949;DHT22;13961;51.178;4.448;2022-08-27T02:39:36;17.20;99.90
25949;DHT22;13961;51.178;4.448;2022-08-27T02:42:01;17.20;99.90
25949;DHT22;13961;51.178;4.448;2022-08-27T02:44:27;17.10;99.90
25949;DHT22;13961;51.178;4.448;2022-08-27T02:46:52;17.20;99.90
25949;DHT22;13961;51.178;4.448;2022-08-27T02:49:18;17.20;99.90
25949;DHT22;13961;51.178;4.448;2022-08-27T02:51:44;17.10;99.90
25949;DHT22;13961;51.178;4.448;2022-08-27T02:54:10;17.20;99.90
25949;DHT22;13961;51.178;4.448;2022-08-27T02:56:36;17.10;99.90
25949;DHT22;13961;51.178;4.448;2022-08-27T02:59:02;17.10;99.90
25949;DHT22;13961;51.178;4.448;2022-08-27T03:01:28;16.90;99.90
25949;DHT22;13961;51.178;4.448;2022-08-27T03:03:55;16.90;99.90
25949;DHT22;13961;51.178;4.448;2022-08-27T03:06:21;16.80;99.90
25949;DHT22;13961;51.178;4.448;2022-08-27T03:08:47;16.90;99.90
25949;DHT22;13961;51.178;4.448;2022-08-27T03:11:12;16.90;99.90
25949;DHT22;13961;51.178;4.448;2022-08-27T03:13:38;17.00;99.90
25949;DHT22;13961;51.178;4.448;2022-08-27T03:16:05;17.00;99.90
25949;DHT22;13961;51.178;4.448;2022-08-27T03:18:30;17.00;99.90
25949;DHT22;13961;51.178;4.448;2022-08-27T03:20:56;16.90;99.90
25949;DHT22;13961;51.178;4.448;2022-08-27T03:23:24;16.80;99.90
25949;DHT22;13961;51.178;4.448;2022-08-27T03:25:52;16.90;99.90
25949;DHT22;13961;51.178;4.448;2022-08-27T03:28:20;16.90;99.90
25949;DHT22;13961;51.178;4.448;2022-08-27T03:30:48;16.90;99.90
25949;DHT22;13961;51.178;4.448;2022-08-27T03:33:15;17.20;99.90
25949;DHT22;13961;51.178;4.448;2022-08-27T03:35:40;16.90;99.90
25949;DHT22;13961;51.178;4.448;2022-08-27T03:38:06;16.80;99.90
25949;DHT22;13961;51.178;4.448;2022-08-27T03:40:32;16.70;99.90
25949;DHT22;13961;51.178;4.448;2022-08-27T03:42:57;16.60;99.90
25949;DHT22;13961;51.178;4.448;2022-08-27T03:45:23;16.50;99.90
25949;DHT22;13961;51.178;4.448;2022-08-27T03:47:48;16.50;99.90
25949;DHT22;13961;51.178;4.448;2022-08-27T03:50:15;16.70;99.90
25949;DHT22;13961;51.178;4.448;2022-08-27T03:52:40;16.50;99.90
25949;DHT22;13961;51.178;4.448;2022-08-27T03:55:07;16.40;99.90
25949;DHT22;13961;51.178;4.448;2022-08-27T03:57:33;16.50;99.90
25949;DHT22;13961;51.178;4.448;2022-08-27T03:59:59;16.60;99.90
25949;DHT22;13961;51.178;4.448;2022-08-27T04:02:25;16.70;99.90
25949;DHT22;13961;51.178;4.448;2022-08-27T04:04:51;16.70;99.90
25949;DHT22;13961;51.178;4.448;2022-08-27T04:07:16;16.70;99.90
25949;DHT22;13961;51.178;4.448;2022-08-27T04:09:42;16.60;99.90
25949;DHT22;13961;51.178;4.448;2022-08-27T04:12:08;16.70;99.90
25949;DHT22;13961;51.178;4.448;2022-08-27T04:14:33;16.60;99.90
25949;DHT22;13961;51.178;4.448;2022-08-27T04:16:59;16.60;99.90
25949;DHT22;13961;51.178;4.448;2022-08-27T04:19:25;16.60;99.90
25949;DHT22;13961;51.178;4.448;2022-08-27T04:21:59;16.70;99.90
25949;DHT22;13961;51.178;4.448;2022-08-27T04:24:25;16.70;99.90
25949;DHT22;13961;51.178;4.448;2022-08-27T04:26:50;16.70;99.90
25949;DHT22;13961;51.178;4.448;2022-08-27T04:29:16;16.60;99.90
25949;DHT22;13961;51.178;4.448;2022-08-27T04:31:41;16.70;99.90
25949;DHT22;13961;51.178;4.448;2022-08-27T04:34:07;16.60;99.90
25949;DHT22;13961;51.178;4.448;2022-08-27T04:36:33;16.60;99.90
25949;DHT22;13961;51.178;4.448;2022-08-27T04:38:58;16.60;99.90
25949;DHT22;13961;51.178;4.448;2022-08-27T04:41:24;16.60;99.90
25949;DHT22;13961;51.178;4.448;2022-08-27T04:43:57;16.60;99.90
25949;DHT22;13961;51.178;4.448;2022-08-27T04:46:27;16.50;99.90
25949;DHT22;13961;51.178;4.448;2022-08-27T04:48:55;16.60;99.90
25949;DHT22;13961;51.178;4.448;2022-08-27T04:51:21;16.70;99.90
25949;DHT22;13961;51.178;4.448;2022-08-27T04:53:47;16.60;99.90
25949;DHT22;13961;51.178;4.448;2022-08-27T04:56:16;16.50;99.90
25949;DHT22;13961;51.178;4.448;2022-08-27T04:58:43;16.60;99.90
25949;DHT22;13961;51.178;4.448;2022-08-27T05:01:14;16.60;99.90
25949;DHT22;13961;51.178;4.448;2022-08-27T05:03:41;16.50;99.90
25949;DHT22;13961;51.178;4.448;2022-08-27T05:06:06;16.50;99.90
25949;DHT22;13961;51.178;4.448;2022-08-27T05:08:33;16.50;99.90
25949;DHT22;13961;51.178;4.448;2022-08-27T05:10:59;16.60;99.90
25949;DHT22;13961;51.178;4.448;2022-08-27T05:13:26;16.50;99.90
25949;DHT22;13961;51.178;4.448;2022-08-27T05:16:04;16.70;99.90
25949;DHT22;13961;51.178;4.448;2022-08-27T05:18:31;16.50;99.90
25949;DHT22;13961;51.178;4.448;2022-08-27T05:20:57;16.40;99.90
25949;DHT22;13961;51.178;4.448;2022-08-27T05:23:24;16.60;99.90
25949;DHT22;13961;51.178;4.448;2022-08-27T05:25:52;16.70;99.90
25949;DHT22;13961;51.178;4.448;2022-08-27T05:28:20;16.80;99.90
25949;DHT22;13961;51.178;4.448;2022-08-27T05:30:48;16.90;99.90
25949;DHT22;13961;51.178;4.448;2022-08-27T05:33:16;17.00;99.90
25949;DHT22;13961;51.178;4.448;2022-08-27T05:35:45;17.00;99.90
25949;DHT22;13961;51.178;4.448;2022-08-27T05:38:11;17.00;99.90
25949;DHT22;13961;51.178;4.448;2022-08-27T05:40:38;17.00;99.90
25949;DHT22;13961;51.178;4.448;2022-08-27T05:43:05;17.10;99.90
25949;DHT22;13961;51.178;4.448;2022-08-27T05:45:32;17.20;99.90
25949;DHT22;13961;51.178;4.448;2022-08-27T05:47:58;17.30;99.90
25949;DHT22;13961;51.178;4.448;2022-08-27T05:50:25;17.50;99.90
25949;DHT22;13961;51.178;4.448;2022-08-27T05:52:50;17.90;99.90
25949;DHT22;13961;51.178;4.448;2022-08-27T05:55:16;17.90;99.90
25949;DHT22;13961;51.178;4.448;2022-08-27T05:57:42;18.10;99.90
25949;DHT22;13961;51.178;4.448;2022-08-27T06:00:08;18.30;99.90
25949;DHT22;13961;51.178;4.448;2022-08-27T06:02:52;18.50;99.90
25949;DHT22;13961;51.178;4.448;2022-08-27T06:05:18;18.70;99.90
25949;DHT22;13961;51.178;4.448;2022-08-27T06:07:44;18.90;99.90
25949;DHT22;13961;51.178;4.448;2022-08-27T06:10:10;19.10;99.90
25949;DHT22;13961;51.178;4.448;2022-08-27T06:12:36;19.10;99.90
25949;DHT22;13961;51.178;4.448;2022-08-27T06:15:03;19.20;99.90
25949;DHT22;13961;51.178;4.448;2022-08-27T06:17:29;19.20;99.90
25949;DHT22;13961;51.178;4.448;2022-08-27T06:19:55;19.30;99.90
25949;DHT22;13961;51.178;4.448;2022-08-27T06:22:21;19.30;99.90
25949;DHT22;13961;51.178;4.448;2022-08-27T06:24:47;19.10;99.90
25949;DHT22;13961;51.178;4.448;2022-08-27T06:27:15;19.00;99.90
25949;DHT22;13961;51.178;4.448;2022-08-27T06:29:42;18.90;99.90
25949;DHT22;13961;51.178;4.448;2022-08-27T06:32:08;19.30;99.90
25949;DHT22;13961;51.178;4.448;2022-08-27T06:34:35;20.60;99.90
25949;DHT22;13961;51.178;4.448;2022-08-27T06:37:01;22.00;99.90
25949;DHT22;13961;51.178;4.448;2022-08-27T06:39:27;23.40;99.90
25949;DHT22;13961;51.178;4.448;2022-08-27T06:41:53;24.20;99.90
25949;DHT22;13961;51.178;4.448;2022-08-27T06:44:19;25.30;99.90
25949;DHT22;13961;51.178;4.448;2022-08-27T06:46:46;26.10;99.90
25949;DHT22;13961;51.178;4.448;2022-08-27T06:49:12;26.60;99.90
25949;DHT22;13961;51.178;4.448;2022-08-27T06:51:39;26.90;99.90
25949;DHT22;13961;51.178;4.448;2022-08-27T06:54:08;27.20;99.90
25949;DHT22;13961;51.178;4.448;2022-08-27T06:56:37;27.40;99.90
25949;DHT22;13961;51.178;4.448;2022-08-27T06:59:05;27.60;99.90
25949;DHT22;13961;51.178;4.448;2022-08-27T07:01:37;27.60;99.90
25949;DHT22;13961;51.178;4.448;2022-08-27T07:04:06;28.50;99.90
25949;DHT22;13961;51.178;4.448;2022-08-27T07:06:33;28.00;99.90
25949;DHT22;13961;51.178;4.448;2022-08-27T07:08:59;28.70;99.00
25949;DHT22;13961;51.178;4.448;2022-08-27T07:11:26;29.00;98.50
25949;DHT22;13961;51.178;4.448;2022-08-27T07:13:53;29.00;97.70
25949;DHT22;13961;51.178;4.448;2022-08-27T07:16:23;28.90;97.70
25949;DHT22;13961;51.178;4.448;2022-08-27T07:18:51;29.30;97.50
25949;DHT22;13961;51.178;4.448;2022-08-27T07:21:17;29.10;97.60
25949;DHT22;13961;51.178;4.448;2022-08-27T07:23:45;29.50;96.70
25949;DHT22;13961;51.178;4.448;2022-08-27T07:26:12;29.10;96.70
25949;DHT22;13961;51.178;4.448;2022-08-27T07:28:39;29.20;96.60
25949;DHT22;13961;51.178;4.448;2022-08-27T07:31:06;29.40;95.70
25949;DHT22;13961;51.178;4.448;2022-08-27T07:33:37;29.60;95.40
25949;DHT22;13961;51.178;4.448;2022-08-27T07:36:04;29.70;95.60
25949;DHT22;13961;51.178;4.448;2022-08-27T07:38:31;29.80;95.00
25949;DHT22;13961;51.178;4.448;2022-08-27T07:40:56;28.80;95.50
25949;DHT22;13961;51.178;4.448;2022-08-27T07:43:22;29.10;95.10
25949;DHT22;13961;51.178;4.448;2022-08-27T07:46:06;29.10;95.30
25949;DHT22;13961;51.178;4.448;2022-08-27T07:48:33;28.80;95.70
25949;DHT22;13961;51.178;4.448;2022-08-27T07:51:02;28.30;96.30
25949;DHT22;13961;51.178;4.448;2022-08-27T07:53:31;27.70;97.20
25949;DHT22;13961;51.178;4.448;2022-08-27T07:56:04;28.50;96.40
25949;DHT22;13961;51.178;4.448;2022-08-27T07:58:30;29.90;95.20
25949;DHT22;13961;51.178;4.448;2022-08-27T08:00:56;29.70;94.90
25949;DHT22;13961;51.178;4.448;2022-08-27T08:03:21;29.40;95.40
25949;DHT22;13961;51.178;4.448;2022-08-27T08:05:47;30.20;94.60
25949;DHT22;13961;51.178;4.448;2022-08-27T08:08:14;30.90;94.00
25949;DHT22;13961;51.178;4.448;2022-08-27T08:10:40;31.40;93.70
25949;DHT22;13961;51.178;4.448;2022-08-27T08:13:06;31.00;93.70
25949;DHT22;13961;51.178;4.448;2022-08-27T08:15:32;31.20;93.40
25949;DHT22;13961;51.178;4.448;2022-08-27T08:17:59;30.60;93.90
25949;DHT22;13961;51.178;4.448;2022-08-27T08:20:25;29.30;95.00
25949;DHT22;13961;51.178;4.448;2022-08-27T08:22:50;28.90;95.80
25949;DHT22;13961;51.178;4.448;2022-08-27T08:25:16;29.60;95.70
25949;DHT22;13961;51.178;4.448;2022-08-27T08:27:42;30.00;94.80
25949;DHT22;13961;51.178;4.448;2022-08-27T08:30:09;30.20;94.30
25949;DHT22;13961;51.178;4.448;2022-08-27T08:32:35;30.60;93.80
25949;DHT22;13961;51.178;4.448;2022-08-27T08:35:01;30.60;93.60
25949;DHT22;13961;51.178;4.448;2022-08-27T08:37:27;29.20;95.00
25949;DHT22;13961;51.178;4.448;2022-08-27T08:39:52;28.00;95.40
25949;DHT22;13961;51.178;4.448;2022-08-27T08:44:55;27.40;97.30
25949;DHT22;13961;51.178;4.448;2022-08-27T08:47:47;27.90;97.10
25949;DHT22;13961;51.178;4.448;2022-08-27T08:50:27;28.30;96.50
25949;DHT22;13961;51.178;4.448;2022-08-27T08:53:12;28.60;95.50
25949;DHT22;13961;51.178;4.448;2022-08-27T08:55:47;28.30;95.70
25949;DHT22;13961;51.178;4.448;2022-08-27T09:01:08;28.60;95.30
25949;DHT22;13961;51.178;4.448;2022-08-27T09:03:37;29.00;94.70
25949;DHT22;13961;51.178;4.448;2022-08-27T09:06:08;28.70;94.90
25949;DHT22;13961;51.178;4.448;2022-08-27T09:08:40;28.30;94.50
25949;DHT22;13961;51.178;4.448;2022-08-27T09:14:23;27.40;95.50
25949;DHT22;13961;51.178;4.448;2022-08-27T09:16:47;26.70;96.90
25949;DHT22;13961;51.178;4.448;2022-08-27T09:19:12;26.20;97.20
25949;DHT22;13961;51.178;4.448;2022-08-27T09:21:51;25.50;98.50
25949;DHT22;13961;51.178;4.448;2022-08-27T09:24:41;25.20;98.70
25949;DHT22;13961;51.178;4.448;2022-08-27T09:27:08;25.20;99.30
25949;DHT22;13961;51.178;4.448;2022-08-27T09:29:46;24.90;99.40
25949;DHT22;13961;51.178;4.448;2022-08-27T09:32:12;24.70;99.40
25949;DHT22;13961;51.178;4.448;2022-08-27T09:34:41;24.70;99.30
25949;DHT22;13961;51.178;4.448;2022-08-27T09:39:54;24.50;99.90
25949;DHT22;13961;51.178;4.448;2022-08-27T09:42:41;24.50;99.90
25949;DHT22;13961;51.178;4.448;2022-08-27T09:45:14;24.40;99.40
25949;DHT22;13961;51.178;4.448;2022-08-27T09:47:47;24.70;99.90
25949;DHT22;13961;51.178;4.448;2022-08-27T09:50:17;25.00;99.90
25949;DHT22;13961;51.178;4.448;2022-08-27T09:56:19;24.80;99.90
25949;DHT22;13961;51.178;4.448;2022-08-27T09:58:23;24.70;99.80
25949;DHT22;13961;51.178;4.448;2022-08-27T10:03:23;24.80;99.90
25949;DHT22;13961;51.178;4.448;2022-08-27T10:05:50;24.80;99.80
25949;DHT22;13961;51.178;4.448;2022-08-27T10:08:45;24.80;99.60
25949;DHT22;13961;51.178;4.448;2022-08-27T10:16:35;24.60;99.90
25949;DHT22;13961;51.178;4.448;2022-08-27T10:19:31;24.00;99.90
25949;DHT22;13961;51.178;4.448;2022-08-27T10:25:16;24.20;99.90
25949;DHT22;13961;51.178;4.448;2022-08-27T10:31:01;24.70;99.90
25949;DHT22;13961;51.178;4.448;2022-08-27T10:42:34;25.10;99.90
25949;DHT22;13961;51.178;4.448;2022-08-27T10:53:07;25.80;99.30
25949;DHT22;13961;51.178;4.448;2022-08-27T10:55:40;25.50;99.50
25949;DHT22;13961;51.178;4.448;2022-08-27T10:58:34;25.50;99.80
25949;DHT22;13961;51.178;4.448;2022-08-27T11:03:47;25.40;99.90
25949;DHT22;13961;51.178;4.448;2022-08-27T11:06:22;25.40;99.90
25949;DHT22;13961;51.178;4.448;2022-08-27T11:09:02;25.60;99.90
25949;DHT22;13961;51.178;4.448;2022-08-27T11:11:37;25.90;99.70
25949;DHT22;13961;51.178;4.448;2022-08-27T11:14:14;26.00;98.70
25949;DHT22;13961;51.178;4.448;2022-08-27T11:16:46;25.90;98.70
25949;DHT22;13961;51.178;4.448;2022-08-27T11:22:24;25.80;99.50
25949;DHT22;13961;51.178;4.448;2022-08-27T11:27:28;25.40;99.70
25949;DHT22;13961;51.178;4.448;2022-08-27T11:30:11;25.40;99.60
25949;DHT22;13961;51.178;4.448;2022-08-27T11:44:25;25.20;99.90
25949;DHT22;13961;51.178;4.448;2022-08-27T11:49:44;25.40;99.90
25949;DHT22;13961;51.178;4.448;2022-08-27T11:52:18;25.60;99.90
25949;DHT22;13961;51.178;4.448;2022-08-27T11:54:47;25.80;99.90
25949;DHT22;13961;51.178;4.448;2022-08-27T11:57:31;25.70;99.90
25949;DHT22;13961;51.178;4.448;2022-08-27T11:59:58;26.00;99.60
25949;DHT22;13961;51.178;4.448;2022-08-27T12:02:35;26.00;99.00
25949;DHT22;13961;51.178;4.448;2022-08-27T12:07:45;25.40;99.90
25949;DHT22;13961;51.178;4.448;2022-08-27T12:29:54;25.40;99.90
25949;DHT22;13961;51.178;4.448;2022-08-27T12:35:01;25.40;99.90
25949;DHT22;13961;51.178;4.448;2022-08-27T12:37:32;25.10;99.90
25949;DHT22;13961;51.178;4.448;2022-08-27T12:39:59;25.20;99.90
25949;DHT22;13961;51.178;4.448;2022-08-27T12:42:26;25.50;99.90
25949;DHT22;13961;51.178;4.448;2022-08-27T12:44:56;25.30;99.90
25949;DHT22;13961;51.178;4.448;2022-08-27T12:47:22;25.30;99.90
25949;DHT22;13961;51.178;4.448;2022-08-27T12:49:55;25.30;99.90
25949;DHT22;13961;51.178;4.448;2022-08-27T12:55:33;25.20;99.90
25949;DHT22;13961;51.178;4.448;2022-08-27T12:58:05;24.70;99.90
25949;DHT22;13961;51.178;4.448;2022-08-27T13:03:20;24.50;99.90
25949;DHT22;13961;51.178;4.448;2022-08-27T13:05:49;24.90;99.90
25949;DHT22;13961;51.178;4.448;2022-08-27T13:08:31;25.00;99.90
25949;DHT22;13961;51.178;4.448;2022-08-27T13:13:42;25.40;99.90
25949;DHT22;13961;51.178;4.448;2022-08-27T13:16:08;25.40;99.90
25949;DHT22;13961;51.178;4.448;2022-08-27T13:18:34;25.30;99.50
25949;DHT22;13961;51.178;4.448;2022-08-27T13:23:30;24.90;99.90
25949;DHT22;13961;51.178;4.448;2022-08-27T13:26:03;24.70;99.90
25949;DHT22;13961;51.178;4.448;2022-08-27T13:28:30;24.90;99.90
25949;DHT22;13961;51.178;4.448;2022-08-27T13:30:57;25.20;99.90
25949;DHT22;13961;51.178;4.448;2022-08-27T13:33:29;25.30;99.90
25949;DHT22;13961;51.178;4.448;2022-08-27T13:35:56;25.30;99.90
25949;DHT22;13961;51.178;4.448;2022-08-27T13:38:23;25.40;99.80
25949;DHT22;13961;51.178;4.448;2022-08-27T13:40:57;25.50;99.60
25949;DHT22;13961;51.178;4.448;2022-08-27T13:45:59;25.30;99.90
25949;DHT22;13961;51.178;4.448;2022-08-27T13:48:26;25.30;99.90
25949;DHT22;13961;51.178;4.448;2022-08-27T13:50:56;25.10;99.90
25949;DHT22;13961;51.178;4.448;2022-08-27T13:53:28;25.00;99.90
25949;DHT22;13961;51.178;4.448;2022-08-27T13:56:28;24.50;99.90
25949;DHT22;13961;51.178;4.448;2022-08-27T13:59:13;24.50;99.90
25949;DHT22;13961;51.178;4.448;2022-08-27T14:07:15;24.20;99.90
25949;DHT22;13961;51.178;4.448;2022-08-27T14:09:48;24.10;99.90
25949;DHT22;13961;51.178;4.448;2022-08-27T14:12:30;24.00;99.90
25949;DHT22;13961;51.178;4.448;2022-08-27T14:14:56;24.00;99.90
25949;DHT22;13961;51.178;4.448;2022-08-27T14:17:33;23.90;99.90
25949;DHT22;13961;51.178;4.448;2022-08-27T14:20:00;24.10;99.90
25949;DHT22;13961;51.178;4.448;2022-08-27T14:22:27;24.00;99.90
25949;DHT22;13961;51.178;4.448;2022-08-27T14:24:52;23.90;99.90
25949;DHT22;13961;51.178;4.448;2022-08-27T14:27:18;24.10;99.90
25949;DHT22;13961;51.178;4.448;2022-08-27T14:29:45;24.20;99.90
25949;DHT22;13961;51.178;4.448;2022-08-27T14:32:13;24.20;99.90
25949;DHT22;13961;51.178;4.448;2022-08-27T14:34:38;24.40;99.90
25949;DHT22;13961;51.178;4.448;2022-08-27T14:37:04;24.60;99.90
25949;DHT22;13961;51.178;4.448;2022-08-27T14:39:30;24.80;99.90
25949;DHT22;13961;51.178;4.448;2022-08-27T14:41:56;24.40;99.90
25949;DHT22;13961;51.178;4.448;2022-08-27T14:44:22;24.30;99.90
25949;DHT22;13961;51.178;4.448;2022-08-27T14:46:47;24.50;99.90
25949;DHT22;13961;51.178;4.448;2022-08-27T14:49:17;24.50;99.90
25949;DHT22;13961;51.178;4.448;2022-08-27T14:51:44;24.40;99.90
25949;DHT22;13961;51.178;4.448;2022-08-27T14:54:10;24.40;99.90
25949;DHT22;13961;51.178;4.448;2022-08-27T14:56:36;24.30;99.90
25949;DHT22;13961;51.178;4.448;2022-08-27T14:59:02;24.20;99.90
25949;DHT22;13961;51.178;4.448;2022-08-27T15:01:28;24.10;99.90
25949;DHT22;13961;51.178;4.448;2022-08-27T15:03:54;23.90;99.90
25949;DHT22;13961;51.178;4.448;2022-08-27T15:06:21;24.00;99.90
25949;DHT22;13961;51.178;4.448;2022-08-27T15:08:48;24.10;99.90
25949;DHT22;13961;51.178;4.448;2022-08-27T15:11:19;24.00;99.90
25949;DHT22;13961;51.178;4.448;2022-08-27T15:13:48;23.90;99.90
25949;DHT22;13961;51.178;4.448;2022-08-27T15:16:35;24.20;99.90
25949;DHT22;13961;51.178;4.448;2022-08-27T15:19:03;24.40;99.90
25949;DHT22;13961;51.178;4.448;2022-08-27T15:21:31;24.20;99.90
25949;DHT22;13961;51.178;4.448;2022-08-27T15:24:01;24.20;99.90
25949;DHT22;13961;51.178;4.448;2022-08-27T15:26:27;24.00;99.90
25949;DHT22;13961;51.178;4.448;2022-08-27T15:28:53;24.00;99.90
25949;DHT22;13961;51.178;4.448;2022-08-27T15:31:19;24.10;99.90
25949;DHT22;13961;51.178;4.448;2022-08-27T15:33:45;24.30;99.90
25949;DHT22;13961;51.178;4.448;2022-08-27T15:36:11;24.60;99.90
25949;DHT22;13961;51.178;4.448;2022-08-27T15:38:37;24.80;99.90
25949;DHT22;13961;51.178;4.448;2022-08-27T15:41:03;24.60;99.90
25949;DHT22;13961;51.178;4.448;2022-08-27T15:43:29;24.30;99.90
25949;DHT22;13961;51.178;4.448;2022-08-27T15:45:55;24.30;99.90
25949;DHT22;13961;51.178;4.448;2022-08-27T15:48:21;24.20;99.90
25949;DHT22;13961;51.178;4.448;2022-08-27T15:50:46;24.40;99.90
25949;DHT22;13961;51.178;4.448;2022-08-27T15:53:13;24.40;99.90
25949;DHT22;13961;51.178;4.448;2022-08-27T15:55:41;24.30;99.90
25949;DHT22;13961;51.178;4.448;2022-08-27T15:58:08;24.20;99.90
25949;DHT22;13961;51.178;4.448;2022-08-27T16:00:35;24.50;99.90
25949;DHT22;13961;51.178;4.448;2022-08-27T16:03:03;24.50;99.90
25949;DHT22;13961;51.178;4.448;2022-08-27T16:05:33;24.50;99.90
25949;DHT22;13961;51.178;4.448;2022-08-27T16:07:59;24.60;99.90
25949;DHT22;13961;51.178;4.448;2022-08-27T16:10:24;24.60;99.90
25949;DHT22;13961;51.178;4.448;2022-08-27T16:12:51;24.60;99.90
25949;DHT22;13961;51.178;4.448;2022-08-27T16:15:17;24.40;99.90
25949;DHT22;13961;51.178;4.448;2022-08-27T16:17:43;24.50;99.90
25949;DHT22;13961;51.178;4.448;2022-08-27T16:20:10;24.50;99.90
25949;DHT22;13961;51.178;4.448;2022-08-27T16:22:37;24.50;99.90
25949;DHT22;13961;51.178;4.448;2022-08-27T16:25:04;24.40;99.90
25949;DHT22;13961;51.178;4.448;2022-08-27T16:27:30;24.20;99.90
25949;DHT22;13961;51.178;4.448;2022-08-27T16:29:57;24.10;99.90
25949;DHT22;13961;51.178;4.448;2022-08-27T16:32:22;23.60;99.90
25949;DHT22;13961;51.178;4.448;2022-08-27T16:34:48;23.50;99.90
25949;DHT22;13961;51.178;4.448;2022-08-27T16:37:14;23.80;99.90
25949;DHT22;13961;51.178;4.448;2022-08-27T16:39:39;23.60;99.90
25949;DHT22;13961;51.178;4.448;2022-08-27T16:42:06;23.60;99.90
25949;DHT22;13961;51.178;4.448;2022-08-27T16:44:34;23.40;99.90
25949;DHT22;13961;51.178;4.448;2022-08-27T16:47:00;23.50;99.90
25949;DHT22;13961;51.178;4.448;2022-08-27T16:49:25;23.50;99.90
25949;DHT22;13961;51.178;4.448;2022-08-27T16:52:10;23.40;99.90
25949;DHT22;13961;51.178;4.448;2022-08-27T16:54:36;23.20;99.90
25949;DHT22;13961;51.178;4.448;2022-08-27T16:57:02;23.00;99.90
25949;DHT22;13961;51.178;4.448;2022-08-27T16:59:28;23.10;99.90
25949;DHT22;13961;51.178;4.448;2022-08-27T17:01:54;22.90;99.90
25949;DHT22;13961;51.178;4.448;2022-08-27T17:04:20;22.90;99.90
25949;DHT22;13961;51.178;4.448;2022-08-27T17:06:46;22.90;99.90
25949;DHT22;13961;51.178;4.448;2022-08-27T17:09:12;22.90;99.90
25949;DHT22;13961;51.178;4.448;2022-08-27T17:11:40;23.10;99.90
25949;DHT22;13961;51.178;4.448;2022-08-27T17:14:08;23.10;99.90
25949;DHT22;13961;51.178;4.448;2022-08-27T17:16:37;22.90;99.90
25949;DHT22;13961;51.178;4.448;2022-08-27T17:19:04;23.00;99.90
25949;DHT22;13961;51.178;4.448;2022-08-27T17:21:31;23.00;99.90
25949;DHT22;13961;51.178;4.448;2022-08-27T17:23:58;22.90;99.90
25949;DHT22;13961;51.178;4.448;2022-08-27T17:26:27;22.80;99.90
25949;DHT22;13961;51.178;4.448;2022-08-27T17:28:53;22.80;99.90
25949;DHT22;13961;51.178;4.448;2022-08-27T17:31:25;23.00;99.90